sensor_id;sensor_type;location;lat;lon;timestamp;P1;durP1;ratioP1;P2;durP2;ratioP2
21527;SDS011;10925;49.102;-0.370;2023-04-24T00:04:07;12.10;;;2.47;;
21527;SDS011;10925;49.102;-0.370;2023-04-24T00:06:36;12.95;;;2.60;;
21527;SDS011;10925;49.102;-0.370;2023-04-24T00:09:03;11.90;;;2.45;;
21527;SDS011;10925;49.102;-0.370;2023-04-24T00:11:31;14.27;;;2.95;;
21527;SDS011;10925;49.102;-0.370;2023-04-24T00:13:58;14.48;;;2.50;;
21527;SDS011;10925;49.102;-0.370;2023-04-24T00:16:23;11.40;;;2.47;;
21527;SDS011;10925;49.102;-0.370;2023-04-24T00:18:50;9.98;;;2.20;;
21527;SDS011;10925;49.102;-0.370;2023-04-24T00:21:19;12.50;;;2.97;;
21527;SDS011;10925;49.102;-0.370;2023-04-24T00:26:39;13.30;;;2.80;;
21527;SDS011;10925;49.102;-0.370;2023-04-24T00:29:04;12.93;;;3.22;;
21527;SDS011;10925;49.102;-0.370;2023-04-24T00:31:31;15.32;;;2.85;;
21527;SDS011;10925;49.102;-0.370;2023-04-24T00:33:58;9.90;;;2.40;;
21527;SDS011;10925;49.102;-0.370;2023-04-24T00:36:23;14.90;;;2.60;;
21527;SDS011;10925;49.102;-0.370;2023-04-24T00:38:50;12.45;;;3.13;;
21527;SDS011;10925;49.102;-0.370;2023-04-24T00:41:17;18.27;;;3.67;;
21527;SDS011;10925;49.102;-0.370;2023-04-24T00:43:43;10.52;;;2.92;;
21527;SDS011;10925;49.102;-0.370;2023-04-24T00:46:10;13.45;;;3.00;;
21527;SDS011;10925;49.102;-0.370;2023-04-24T00:48:39;12.52;;;3.17;;
21527;SDS011;10925;49.102;-0.370;2023-04-24T00:51:06;11.93;;;3.75;;
21527;SDS011;10925;49.102;-0.370;2023-04-24T00:53:33;10.20;;;3.03;;
21527;SDS011;10925;49.102;-0.370;2023-04-24T00:55:59;10.82;;;3.33;;
21527;SDS011;10925;49.102;-0.370;2023-04-24T00:58:26;11.75;;;3.50;;
21527;SDS011;10925;49.102;-0.370;2023-04-24T01:00:53;13.25;;;2.75;;
21527;SDS011;10925;49.102;-0.370;2023-04-24T01:03:25;6.35;;;2.67;;
21527;SDS011;10925;49.102;-0.370;2023-04-24T01:05:53;13.52;;;3.08;;
21527;SDS011;10925;49.102;-0.370;2023-04-24T01:08:21;15.48;;;3.10;;
21527;SDS011;10925;49.102;-0.370;2023-04-24T01:10:50;12.88;;;3.42;;
21527;SDS011;10925;49.102;-0.370;2023-04-24T01:13:18;11.10;;;3.05;;
21527;SDS011;10925;49.102;-0.370;2023-04-24T01:15:45;10.27;;;3.05;;
21527;SDS011;10925;49.102;-0.370;2023-04-24T01:18:12;10.57;;;2.95;;
21527;SDS011;10925;49.102;-0.370;2023-04-24T01:20:40;16.58;;;3.58;;
21527;SDS011;10925;49.102;-0.370;2023-04-24T01:23:07;13.23;;;3.67;;
21527;SDS011;10925;49.102;-0.370;2023-04-24T01:25:34;12.98;;;3.85;;
21527;SDS011;10925;49.102;-0.370;2023-04-24T01:27:59;11.75;;;3.65;;
21527;SDS011;10925;49.102;-0.370;2023-04-24T01:30:25;14.25;;;3.60;;
21527;SDS011;10925;49.102;-0.370;2023-04-24T01:32:50;11.68;;;3.97;;
21527;SDS011;10925;49.102;-0.370;2023-04-24T01:35:18;16.63;;;4.32;;
21527;SDS011;10925;49.102;-0.370;2023-04-24T01:37:45;17.10;;;4.43;;
21527;SDS011;10925;49.102;-0.370;2023-04-24T01:40:11;20.13;;;4.75;;
21527;SDS011;10925;49.102;-0.370;2023-04-24T01:42:38;12.48;;;3.95;;
21527;SDS011;10925;49.102;-0.370;2023-04-24T01:45:07;17.77;;;4.45;;
21527;SDS011;10925;49.102;-0.370;2023-04-24T01:47:36;16.42;;;4.32;;
21527;SDS011;10925;49.102;-0.370;2023-04-24T01:53:24;15.73;;;4.50;;
21527;SDS011;10925;49.102;-0.370;2023-04-24T01:55:49;12.90;;;3.97;;
21527;SDS011;10925;49.102;-0.370;2023-04-24T01:58:16;19.05;;;4.57;;
21527;SDS011;10925;49.102;-0.370;2023-04-24T02:00:43;17.00;;;4.57;;
21527;SDS011;10925;49.102;-0.370;2023-04-24T02:03:10;19.48;;;4.78;;
21527;SDS011;10925;49.102;-0.370;2023-04-24T02:05:37;19.45;;;4.72;;
21527;SDS011;10925;49.102;-0.370;2023-04-24T02:08:03;16.58;;;5.00;;
21527;SDS011;10925;49.102;-0.370;2023-04-24T02:10:29;18.90;;;4.75;;
21527;SDS011;10925;49.102;-0.370;2023-04-24T02:12:54;18.48;;;5.28;;
21527;SDS011;10925;49.102;-0.370;2023-04-24T02:15:20;18.40;;;5.15;;
21527;SDS011;10925;49.102;-0.370;2023-04-24T02:17:47;15.18;;;5.55;;
21527;SDS011;10925;49.102;-0.370;2023-04-24T02:20:14;18.95;;;6.55;;
21527;SDS011;10925;49.102;-0.370;2023-04-24T02:22:40;15.35;;;5.93;;
21527;SDS011;10925;49.102;-0.370;2023-04-24T02:25:07;20.33;;;6.40;;
21527;SDS011;10925;49.102;-0.370;2023-04-24T02:27:34;19.10;;;6.15;;
21527;SDS011;10925;49.102;-0.370;2023-04-24T02:30:04;20.45;;;6.38;;
21527;SDS011;10925;49.102;-0.370;2023-04-24T02:32:31;22.55;;;7.78;;
21527;SDS011;10925;49.102;-0.370;2023-04-24T02:34:58;21.98;;;7.18;;
21527;SDS011;10925;49.102;-0.370;2023-04-24T02:37:25;15.57;;;7.72;;
21527;SDS011;10925;49.102;-0.370;2023-04-24T02:39:52;23.20;;;8.32;;
21527;SDS011;10925;49.102;-0.370;2023-04-24T02:42:19;20.52;;;8.48;;
21527;SDS011;10925;49.102;-0.370;2023-04-24T02:44:46;24.85;;;8.65;;
21527;SDS011;10925;49.102;-0.370;2023-04-24T02:47:12;20.55;;;8.98;;
21527;SDS011;10925;49.102;-0.370;2023-04-24T02:49:39;25.67;;;8.95;;
21527;SDS011;10925;49.102;-0.370;2023-04-24T02:52:06;26.17;;;9.70;;
21527;SDS011;10925;49.102;-0.370;2023-04-24T02:54:33;26.92;;;9.70;;
21527;SDS011;10925;49.102;-0.370;2023-04-24T02:57:00;21.23;;;9.40;;
21527;SDS011;10925;49.102;-0.370;2023-04-24T02:59:28;35.92;;;10.32;;
21527;SDS011;10925;49.102;-0.370;2023-04-24T03:01:54;22.85;;;9.35;;
21527;SDS011;10925;49.102;-0.370;2023-04-24T03:04:21;22.00;;;9.18;;
21527;SDS011;10925;49.102;-0.370;2023-04-24T03:06:48;23.27;;;9.95;;
21527;SDS011;10925;49.102;-0.370;2023-04-24T03:09:14;23.95;;;9.13;;
21527;SDS011;10925;49.102;-0.370;2023-04-24T03:11:41;22.83;;;9.40;;
21527;SDS011;10925;49.102;-0.370;2023-04-24T03:14:07;22.92;;;9.15;;
21527;SDS011;10925;49.102;-0.370;2023-04-24T03:16:36;20.40;;;9.65;;
21527;SDS011;10925;49.102;-0.370;2023-04-24T03:19:03;24.25;;;10.20;;
21527;SDS011;10925;49.102;-0.370;2023-04-24T03:21:30;23.02;;;9.93;;
21527;SDS011;10925;49.102;-0.370;2023-04-24T03:23:58;22.42;;;11.18;;
21527;SDS011;10925;49.102;-0.370;2023-04-24T03:26:24;25.77;;;10.27;;
21527;SDS011;10925;49.102;-0.370;2023-04-24T03:29:03;25.48;;;10.95;;
21527;SDS011;10925;49.102;-0.370;2023-04-24T03:31:28;26.63;;;11.32;;
21527;SDS011;10925;49.102;-0.370;2023-04-24T03:33:56;25.02;;;12.40;;
21527;SDS011;10925;49.102;-0.370;2023-04-24T03:36:23;27.25;;;12.15;;
21527;SDS011;10925;49.102;-0.370;2023-04-24T03:38:50;28.92;;;11.50;;
21527;SDS011;10925;49.102;-0.370;2023-04-24T03:41:28;26.27;;;11.40;;
21527;SDS011;10925;49.102;-0.370;2023-04-24T03:43:55;31.08;;;12.23;;
21527;SDS011;10925;49.102;-0.370;2023-04-24T03:46:21;26.40;;;11.80;;
21527;SDS011;10925;49.102;-0.370;2023-04-24T03:48:53;31.35;;;13.68;;
21527;SDS011;10925;49.102;-0.370;2023-04-24T03:54:19;30.95;;;13.18;;
21527;SDS011;10925;49.102;-0.370;2023-04-24T03:56:46;28.70;;;12.48;;
21527;SDS011;10925;49.102;-0.370;2023-04-24T03:59:13;31.10;;;13.35;;
21527;SDS011;10925;49.102;-0.370;2023-04-24T04:01:40;34.20;;;14.38;;
21527;SDS011;10925;49.102;-0.370;2023-04-24T04:04:06;33.20;;;13.32;;
21527;SDS011;10925;49.102;-0.370;2023-04-24T04:06:35;28.92;;;14.18;;
21527;SDS011;10925;49.102;-0.370;2023-04-24T04:09:03;22.60;;;13.57;;
21527;SDS011;10925;49.102;-0.370;2023-04-24T04:11:30;24.10;;;12.50;;
21527;SDS011;10925;49.102;-0.370;2023-04-24T04:13:57;22.73;;;12.75;;
21527;SDS011;10925;49.102;-0.370;2023-04-24T04:16:24;27.65;;;12.20;;
21527;SDS011;10925;49.102;-0.370;2023-04-24T04:18:56;31.73;;;13.00;;
21527;SDS011;10925;49.102;-0.370;2023-04-24T04:21:22;24.42;;;13.23;;
21527;SDS011;10925;49.102;-0.370;2023-04-24T04:23:55;31.92;;;11.93;;
21527;SDS011;10925;49.102;-0.370;2023-04-24T04:26:21;25.05;;;13.13;;
21527;SDS011;10925;49.102;-0.370;2023-04-24T04:28:52;29.92;;;13.57;;
21527;SDS011;10925;49.102;-0.370;2023-04-24T04:31:19;35.33;;;14.02;;
21527;SDS011;10925;49.102;-0.370;2023-04-24T04:33:45;35.10;;;14.95;;
21527;SDS011;10925;49.102;-0.370;2023-04-24T04:36:12;29.92;;;13.85;;
21527;SDS011;10925;49.102;-0.370;2023-04-24T04:38:44;27.08;;;14.90;;
21527;SDS011;10925;49.102;-0.370;2023-04-24T04:41:10;34.20;;;14.25;;
21527;SDS011;10925;49.102;-0.370;2023-04-24T04:43:37;38.20;;;15.15;;
21527;SDS011;10925;49.102;-0.370;2023-04-24T04:46:06;30.98;;;15.00;;
21527;SDS011;10925;49.102;-0.370;2023-04-24T04:48:55;30.08;;;14.05;;
21527;SDS011;10925;49.102;-0.370;2023-04-24T04:51:23;29.83;;;14.30;;
21527;SDS011;10925;49.102;-0.370;2023-04-24T04:53:49;25.05;;;14.38;;
21527;SDS011;10925;49.102;-0.370;2023-04-24T04:56:16;28.17;;;15.07;;
21527;SDS011;10925;49.102;-0.370;2023-04-24T04:58:44;29.83;;;14.40;;
21527;SDS011;10925;49.102;-0.370;2023-04-24T05:01:11;31.25;;;15.10;;
21527;SDS011;10925;49.102;-0.370;2023-04-24T05:03:41;34.28;;;16.15;;
21527;SDS011;10925;49.102;-0.370;2023-04-24T05:06:11;31.10;;;14.23;;
21527;SDS011;10925;49.102;-0.370;2023-04-24T05:08:38;29.85;;;14.02;;
21527;SDS011;10925;49.102;-0.370;2023-04-24T05:11:08;37.20;;;14.73;;
21527;SDS011;10925;49.102;-0.370;2023-04-24T05:13:37;35.50;;;15.35;;
21527;SDS011;10925;49.102;-0.370;2023-04-24T05:16:26;34.28;;;14.35;;
21527;SDS011;10925;49.102;-0.370;2023-04-24T05:18:53;28.08;;;13.60;;
21527;SDS011;10925;49.102;-0.370;2023-04-24T05:21:26;30.77;;;14.65;;
21527;SDS011;10925;49.102;-0.370;2023-04-24T05:23:53;32.20;;;14.48;;
21527;SDS011;10925;49.102;-0.370;2023-04-24T05:26:18;37.17;;;14.75;;
21527;SDS011;10925;49.102;-0.370;2023-04-24T05:28:45;34.45;;;14.02;;
21527;SDS011;10925;49.102;-0.370;2023-04-24T05:31:13;32.42;;;13.63;;
21527;SDS011;10925;49.102;-0.370;2023-04-24T05:33:40;30.40;;;14.13;;
21527;SDS011;10925;49.102;-0.370;2023-04-24T05:36:07;30.55;;;14.75;;
21527;SDS011;10925;49.102;-0.370;2023-04-24T05:38:34;22.25;;;13.90;;
21527;SDS011;10925;49.102;-0.370;2023-04-24T05:40:59;28.95;;;14.13;;
21527;SDS011;10925;49.102;-0.370;2023-04-24T05:43:26;29.15;;;14.38;;
21527;SDS011;10925;49.102;-0.370;2023-04-24T05:45:52;31.42;;;14.52;;
21527;SDS011;10925;49.102;-0.370;2023-04-24T05:48:18;33.45;;;14.60;;
21527;SDS011;10925;49.102;-0.370;2023-04-24T05:50:45;29.88;;;15.05;;
21527;SDS011;10925;49.102;-0.370;2023-04-24T05:53:14;27.50;;;13.82;;
21527;SDS011;10925;49.102;-0.370;2023-04-24T05:55:41;31.65;;;14.68;;
21527;SDS011;10925;49.102;-0.370;2023-04-24T05:58:08;29.75;;;13.77;;
21527;SDS011;10925;49.102;-0.370;2023-04-24T06:00:35;24.45;;;13.27;;
21527;SDS011;10925;49.102;-0.370;2023-04-24T06:03:06;29.70;;;14.40;;
21527;SDS011;10925;49.102;-0.370;2023-04-24T06:05:33;25.30;;;13.60;;
21527;SDS011;10925;49.102;-0.370;2023-04-24T06:08:01;23.75;;;13.45;;
21527;SDS011;10925;49.102;-0.370;2023-04-24T06:10:32;29.90;;;13.85;;
21527;SDS011;10925;49.102;-0.370;2023-04-24T06:13:00;21.50;;;11.13;;
21527;SDS011;10925;49.102;-0.370;2023-04-24T06:15:29;22.23;;;9.43;;
21527;SDS011;10925;49.102;-0.370;2023-04-24T06:17:55;23.10;;;8.63;;
21527;SDS011;10925;49.102;-0.370;2023-04-24T06:20:23;15.13;;;7.95;;
21527;SDS011;10925;49.102;-0.370;2023-04-24T06:22:49;14.63;;;7.57;;
21527;SDS011;10925;49.102;-0.370;2023-04-24T06:25:16;10.98;;;6.90;;
21527;SDS011;10925;49.102;-0.370;2023-04-24T06:27:43;13.57;;;8.15;;
21527;SDS011;10925;49.102;-0.370;2023-04-24T06:30:10;16.02;;;7.40;;
21527;SDS011;10925;49.102;-0.370;2023-04-24T06:32:37;15.65;;;7.25;;
21527;SDS011;10925;49.102;-0.370;2023-04-24T06:35:04;12.43;;;6.95;;
21527;SDS011;10925;49.102;-0.370;2023-04-24T06:37:31;13.07;;;6.75;;
21527;SDS011;10925;49.102;-0.370;2023-04-24T06:39:58;13.52;;;6.32;;
21527;SDS011;10925;49.102;-0.370;2023-04-24T06:42:25;11.18;;;5.95;;
21527;SDS011;10925;49.102;-0.370;2023-04-24T06:44:52;14.25;;;6.25;;
21527;SDS011;10925;49.102;-0.370;2023-04-24T06:47:19;14.35;;;7.13;;
21527;SDS011;10925;49.102;-0.370;2023-04-24T06:49:45;11.45;;;6.15;;
21527;SDS011;10925;49.102;-0.370;2023-04-24T06:52:12;14.02;;;6.55;;
21527;SDS011;10925;49.102;-0.370;2023-04-24T06:54:41;13.45;;;6.10;;
21527;SDS011;10925;49.102;-0.370;2023-04-24T06:57:08;13.05;;;6.25;;
21527;SDS011;10925;49.102;-0.370;2023-04-24T06:59:34;17.70;;;6.65;;
21527;SDS011;10925;49.102;-0.370;2023-04-24T07:02:01;14.35;;;6.60;;
21527;SDS011;10925;49.102;-0.370;2023-04-24T07:04:28;15.52;;;6.35;;
21527;SDS011;10925;49.102;-0.370;2023-04-24T07:06:56;15.05;;;6.53;;
21527;SDS011;10925;49.102;-0.370;2023-04-24T07:09:24;9.98;;;5.97;;
21527;SDS011;10925;49.102;-0.370;2023-04-24T07:11:52;12.93;;;6.22;;
21527;SDS011;10925;49.102;-0.370;2023-04-24T07:14:19;12.48;;;5.85;;
21527;SDS011;10925;49.102;-0.370;2023-04-24T07:16:46;11.45;;;5.47;;
21527;SDS011;10925;49.102;-0.370;2023-04-24T07:19:13;10.85;;;5.45;;
21527;SDS011;10925;49.102;-0.370;2023-04-24T07:21:40;10.85;;;5.40;;
21527;SDS011;10925;49.102;-0.370;2023-04-24T07:24:07;15.30;;;5.93;;
21527;SDS011;10925;49.102;-0.370;2023-04-24T07:26:37;9.68;;;6.07;;
21527;SDS011;10925;49.102;-0.370;2023-04-24T07:29:05;14.55;;;5.97;;
21527;SDS011;10925;49.102;-0.370;2023-04-24T07:31:31;11.38;;;5.85;;
21527;SDS011;10925;49.102;-0.370;2023-04-24T07:33:58;13.38;;;5.10;;
21527;SDS011;10925;49.102;-0.370;2023-04-24T07:36:25;12.10;;;5.68;;
21527;SDS011;10925;49.102;-0.370;2023-04-24T07:38:52;12.05;;;6.32;;
21527;SDS011;10925;49.102;-0.370;2023-04-24T07:41:19;15.80;;;6.43;;
21527;SDS011;10925;49.102;-0.370;2023-04-24T07:43:47;10.95;;;6.18;;
21527;SDS011;10925;49.102;-0.370;2023-04-24T07:46:13;14.70;;;5.72;;
21527;SDS011;10925;49.102;-0.370;2023-04-24T07:48:40;12.05;;;6.05;;
21527;SDS011;10925;49.102;-0.370;2023-04-24T07:51:07;16.70;;;5.88;;
21527;SDS011;10925;49.102;-0.370;2023-04-24T07:53:35;11.20;;;6.05;;
21527;SDS011;10925;49.102;-0.370;2023-04-24T07:56:02;14.63;;;5.97;;
21527;SDS011;10925;49.102;-0.370;2023-04-24T07:58:28;10.02;;;6.32;;
21527;SDS011;10925;49.102;-0.370;2023-04-24T08:00:55;10.40;;;5.90;;
21527;SDS011;10925;49.102;-0.370;2023-04-24T08:03:22;12.98;;;6.38;;
21527;SDS011;10925;49.102;-0.370;2023-04-24T08:05:49;14.88;;;6.68;;
21527;SDS011;10925;49.102;-0.370;2023-04-24T08:08:17;9.57;;;5.97;;
21527;SDS011;10925;49.102;-0.370;2023-04-24T08:10:44;12.88;;;5.90;;
21527;SDS011;10925;49.102;-0.370;2023-04-24T08:13:11;9.93;;;4.95;;
21527;SDS011;10925;49.102;-0.370;2023-04-24T08:15:36;12.20;;;5.43;;
21527;SDS011;10925;49.102;-0.370;2023-04-24T08:18:03;12.77;;;5.72;;
21527;SDS011;10925;49.102;-0.370;2023-04-24T08:20:30;9.60;;;5.18;;
21527;SDS011;10925;49.102;-0.370;2023-04-24T08:22:55;18.15;;;5.00;;
21527;SDS011;10925;49.102;-0.370;2023-04-24T08:25:23;8.85;;;5.00;;
21527;SDS011;10925;49.102;-0.370;2023-04-24T08:27:51;10.13;;;4.70;;
21527;SDS011;10925;49.102;-0.370;2023-04-24T08:30:17;8.68;;;4.53;;
21527;SDS011;10925;49.102;-0.370;2023-04-24T08:32:43;12.73;;;4.95;;
21527;SDS011;10925;49.102;-0.370;2023-04-24T08:35:10;13.35;;;4.47;;
21527;SDS011;10925;49.102;-0.370;2023-04-24T08:37:37;7.53;;;4.80;;
21527;SDS011;10925;49.102;-0.370;2023-04-24T08:40:05;10.07;;;4.95;;
21527;SDS011;10925;49.102;-0.370;2023-04-24T08:42:33;10.48;;;5.03;;
21527;SDS011;10925;49.102;-0.370;2023-04-24T08:45:00;8.13;;;4.75;;
21527;SDS011;10925;49.102;-0.370;2023-04-24T08:47:28;8.40;;;4.57;;
21527;SDS011;10925;49.102;-0.370;2023-04-24T08:49:56;10.98;;;4.72;;
21527;SDS011;10925;49.102;-0.370;2023-04-24T08:52:23;10.63;;;4.50;;
21527;SDS011;10925;49.102;-0.370;2023-04-24T08:54:49;7.70;;;4.75;;
21527;SDS011;10925;49.102;-0.370;2023-04-24T08:57:16;7.70;;;5.00;;
21527;SDS011;10925;49.102;-0.370;2023-04-24T08:59:42;12.70;;;4.88;;
21527;SDS011;10925;49.102;-0.370;2023-04-24T09:02:10;8.07;;;4.25;;
21527;SDS011;10925;49.102;-0.370;2023-04-24T09:04:37;9.10;;;5.00;;
21527;SDS011;10925;49.102;-0.370;2023-04-24T09:07:04;8.48;;;4.72;;
21527;SDS011;10925;49.102;-0.370;2023-04-24T09:09:31;8.40;;;4.63;;
21527;SDS011;10925;49.102;-0.370;2023-04-24T09:11:59;9.02;;;5.10;;
21527;SDS011;10925;49.102;-0.370;2023-04-24T09:14:26;5.53;;;4.00;;
21527;SDS011;10925;49.102;-0.370;2023-04-24T09:16:54;10.40;;;4.95;;
21527;SDS011;10925;49.102;-0.370;2023-04-24T09:19:21;8.80;;;4.13;;
21527;SDS011;10925;49.102;-0.370;2023-04-24T09:21:48;8.60;;;4.50;;
21527;SDS011;10925;49.102;-0.370;2023-04-24T09:24:17;10.93;;;4.53;;
21527;SDS011;10925;49.102;-0.370;2023-04-24T09:26:44;10.65;;;4.60;;
21527;SDS011;10925;49.102;-0.370;2023-04-24T09:29:17;5.03;;;3.47;;
21527;SDS011;10925;49.102;-0.370;2023-04-24T09:31:44;7.22;;;4.65;;
21527;SDS011;10925;49.102;-0.370;2023-04-24T09:34:11;8.52;;;4.18;;
21527;SDS011;10925;49.102;-0.370;2023-04-24T09:36:39;9.48;;;3.90;;
21527;SDS011;10925;49.102;-0.370;2023-04-24T09:39:08;7.47;;;3.85;;
21527;SDS011;10925;49.102;-0.370;2023-04-24T09:41:35;6.15;;;3.22;;
21527;SDS011;10925;49.102;-0.370;2023-04-24T09:44:12;8.93;;;3.33;;
21527;SDS011;10925;49.102;-0.370;2023-04-24T09:46:39;6.40;;;4.18;;
21527;SDS011;10925;49.102;-0.370;2023-04-24T09:56:25;6.30;;;3.40;;
21527;SDS011;10925;49.102;-0.370;2023-04-24T09:58:52;8.45;;;3.72;;
21527;SDS011;10925;49.102;-0.370;2023-04-24T10:01:30;7.72;;;3.97;;
21527;SDS011;10925;49.102;-0.370;2023-04-24T10:03:58;7.18;;;4.22;;
21527;SDS011;10925;49.102;-0.370;2023-04-24T10:06:32;10.35;;;4.15;;
21527;SDS011;10925;49.102;-0.370;2023-04-24T10:08:58;6.32;;;3.95;;
21527;SDS011;10925;49.102;-0.370;2023-04-24T10:11:26;7.72;;;3.85;;
21527;SDS011;10925;49.102;-0.370;2023-04-24T10:13:51;4.93;;;3.22;;
21527;SDS011;10925;49.102;-0.370;2023-04-24T10:16:18;8.40;;;3.05;;
21527;SDS011;10925;49.102;-0.370;2023-04-24T10:18:46;7.15;;;3.55;;
21527;SDS011;10925;49.102;-0.370;2023-04-24T10:21:14;4.53;;;3.13;;
21527;SDS011;10925;49.102;-0.370;2023-04-24T10:23:40;7.00;;;3.45;;
21527;SDS011;10925;49.102;-0.370;2023-04-24T10:26:06;9.07;;;3.08;;
21527;SDS011;10925;49.102;-0.370;2023-04-24T10:28:33;3.70;;;2.80;;
21527;SDS011;10925;49.102;-0.370;2023-04-24T10:30:59;4.40;;;3.05;;
21527;SDS011;10925;49.102;-0.370;2023-04-24T10:33:26;8.50;;;4.30;;
21527;SDS011;10925;49.102;-0.370;2023-04-24T10:35:53;7.03;;;3.83;;
21527;SDS011;10925;49.102;-0.370;2023-04-24T10:38:23;7.63;;;3.80;;
21527;SDS011;10925;49.102;-0.370;2023-04-24T10:40:51;8.23;;;3.85;;
21527;SDS011;10925;49.102;-0.370;2023-04-24T10:43:18;6.72;;;3.55;;
21527;SDS011;10925;49.102;-0.370;2023-04-24T10:45:59;8.05;;;3.38;;
21527;SDS011;10925;49.102;-0.370;2023-04-24T10:48:27;4.88;;;2.88;;
21527;SDS011;10925;49.102;-0.370;2023-04-24T10:50:52;4.22;;;3.13;;
21527;SDS011;10925;49.102;-0.370;2023-04-24T10:53:20;4.05;;;3.00;;
21527;SDS011;10925;49.102;-0.370;2023-04-24T10:55:50;6.28;;;3.30;;
21527;SDS011;10925;49.102;-0.370;2023-04-24T10:58:24;4.88;;;2.80;;
21527;SDS011;10925;49.102;-0.370;2023-04-24T11:00:57;3.53;;;2.90;;
21527;SDS011;10925;49.102;-0.370;2023-04-24T11:06:02;6.13;;;3.72;;
21527;SDS011;10925;49.102;-0.370;2023-04-24T11:08:37;3.47;;;3.03;;
21527;SDS011;10925;49.102;-0.370;2023-04-24T11:18:50;6.88;;;3.15;;
21527;SDS011;10925;49.102;-0.370;2023-04-24T11:21:19;6.38;;;2.97;;
21527;SDS011;10925;49.102;-0.370;2023-04-24T11:23:46;4.72;;;2.65;;
21527;SDS011;10925;49.102;-0.370;2023-04-24T11:26:19;2.72;;;2.15;;
21527;SDS011;10925;49.102;-0.370;2023-04-24T11:28:47;3.78;;;2.42;;
21527;SDS011;10925;49.102;-0.370;2023-04-24T11:34:05;5.30;;;2.70;;
21527;SDS011;10925;49.102;-0.370;2023-04-24T11:36:32;4.97;;;2.45;;
21527;SDS011;10925;49.102;-0.370;2023-04-24T11:38:58;4.93;;;2.17;;
21527;SDS011;10925;49.102;-0.370;2023-04-24T11:41:25;2.85;;;1.90;;
21527;SDS011;10925;49.102;-0.370;2023-04-24T11:43:52;2.88;;;2.13;;
21527;SDS011;10925;49.102;-0.370;2023-04-24T11:46:20;3.90;;;2.20;;
21527;SDS011;10925;49.102;-0.370;2023-04-24T11:48:47;4.93;;;2.80;;
21527;SDS011;10925;49.102;-0.370;2023-04-24T11:51:14;3.28;;;2.60;;
21527;SDS011;10925;49.102;-0.370;2023-04-24T11:53:41;3.90;;;2.75;;
21527;SDS011;10925;49.102;-0.370;2023-04-24T11:56:08;8.18;;;2.70;;
21527;SDS011;10925;49.102;-0.370;2023-04-24T11:58:35;5.93;;;3.17;;
21527;SDS011;10925;49.102;-0.370;2023-04-24T12:01:02;5.32;;;2.90;;
21527;SDS011;10925;49.102;-0.370;2023-04-24T12:03:29;4.32;;;3.10;;
21527;SDS011;10925;49.102;-0.370;2023-04-24T12:06:06;4.95;;;3.13;;
21527;SDS011;10925;49.102;-0.370;2023-04-24T12:08:34;3.88;;;2.85;;
21527;SDS011;10925;49.102;-0.370;2023-04-24T12:11:05;6.25;;;3.20;;
21527;SDS011;10925;49.102;-0.370;2023-04-24T12:13:35;5.78;;;3.20;;
21527;SDS011;10925;49.102;-0.370;2023-04-24T12:16:03;6.07;;;3.17;;
21527;SDS011;10925;49.102;-0.370;2023-04-24T12:18:31;9.70;;;3.28;;
21527;SDS011;10925;49.102;-0.370;2023-04-24T12:21:16;3.40;;;2.75;;
21527;SDS011;10925;49.102;-0.370;2023-04-24T12:23:43;6.32;;;2.85;;
21527;SDS011;10925;49.102;-0.370;2023-04-24T12:26:08;4.43;;;3.10;;
21527;SDS011;10925;49.102;-0.370;2023-04-24T12:28:36;5.65;;;3.05;;
21527;SDS011;10925;49.102;-0.370;2023-04-24T12:31:03;7.32;;;3.10;;
21527;SDS011;10925;49.102;-0.370;2023-04-24T12:33:33;4.53;;;3.10;;
21527;SDS011;10925;49.102;-0.370;2023-04-24T12:36:01;5.10;;;2.80;;
21527;SDS011;10925;49.102;-0.370;2023-04-24T12:38:28;4.25;;;3.03;;
21527;SDS011;10925;49.102;-0.370;2023-04-24T12:41:03;4.57;;;2.80;;
21527;SDS011;10925;49.102;-0.370;2023-04-24T12:43:29;3.95;;;3.03;;
21527;SDS011;10925;49.102;-0.370;2023-04-24T12:45:56;5.55;;;3.38;;
21527;SDS011;10925;49.102;-0.370;2023-04-24T12:48:23;6.35;;;3.30;;
21527;SDS011;10925;49.102;-0.370;2023-04-24T12:50:48;7.10;;;3.28;;
21527;SDS011;10925;49.102;-0.370;2023-04-24T12:53:14;4.35;;;2.80;;
21527;SDS011;10925;49.102;-0.370;2023-04-24T12:55:40;6.47;;;3.17;;
21527;SDS011;10925;49.102;-0.370;2023-04-24T12:58:07;5.03;;;2.92;;
21527;SDS011;10925;49.102;-0.370;2023-04-24T13:00:33;4.05;;;2.58;;
21527;SDS011;10925;49.102;-0.370;2023-04-24T13:03:00;4.18;;;2.13;;
21527;SDS011;10925;49.102;-0.370;2023-04-24T13:05:28;4.40;;;2.03;;
21527;SDS011;10925;49.102;-0.370;2023-04-24T13:07:54;6.43;;;2.83;;
21527;SDS011;10925;49.102;-0.370;2023-04-24T13:10:21;5.30;;;3.80;;
21527;SDS011;10925;49.102;-0.370;2023-04-24T13:12:46;3.72;;;2.65;;
21527;SDS011;10925;49.102;-0.370;2023-04-24T13:15:12;5.45;;;2.55;;
21527;SDS011;10925;49.102;-0.370;2023-04-24T13:17:39;5.00;;;2.90;;
21527;SDS011;10925;49.102;-0.370;2023-04-24T13:20:06;3.92;;;2.28;;
21527;SDS011;10925;49.102;-0.370;2023-04-24T13:22:32;3.70;;;2.17;;
21527;SDS011;10925;49.102;-0.370;2023-04-24T13:24:59;3.40;;;2.28;;
21527;SDS011;10925;49.102;-0.370;2023-04-24T13:27:27;3.67;;;2.30;;
21527;SDS011;10925;49.102;-0.370;2023-04-24T13:29:54;3.60;;;2.50;;
21527;SDS011;10925;49.102;-0.370;2023-04-24T13:32:21;7.47;;;2.40;;
21527;SDS011;10925;49.102;-0.370;2023-04-24T13:34:48;5.78;;;2.70;;
21527;SDS011;10925;49.102;-0.370;2023-04-24T13:37:14;6.15;;;2.65;;
21527;SDS011;10925;49.102;-0.370;2023-04-24T13:39:41;9.43;;;2.58;;
21527;SDS011;10925;49.102;-0.370;2023-04-24T13:42:07;5.75;;;2.55;;
21527;SDS011;10925;49.102;-0.370;2023-04-24T13:44:33;4.80;;;3.00;;
21527;SDS011;10925;49.102;-0.370;2023-04-24T13:47:00;4.38;;;2.83;;
21527;SDS011;10925;49.102;-0.370;2023-04-24T13:49:27;5.22;;;2.70;;
21527;SDS011;10925;49.102;-0.370;2023-04-24T13:51:54;5.15;;;2.90;;
21527;SDS011;10925;49.102;-0.370;2023-04-24T13:54:21;6.30;;;2.90;;
21527;SDS011;10925;49.102;-0.370;2023-04-24T13:56:49;3.30;;;2.58;;
21527;SDS011;10925;49.102;-0.370;2023-04-24T13:59:17;4.55;;;2.47;;
21527;SDS011;10925;49.102;-0.370;2023-04-24T14:01:45;4.07;;;2.63;;
21527;SDS011;10925;49.102;-0.370;2023-04-24T14:04:10;4.75;;;2.95;;
21527;SDS011;10925;49.102;-0.370;2023-04-24T14:06:37;4.45;;;2.40;;
21527;SDS011;10925;49.102;-0.370;2023-04-24T14:09:04;5.28;;;2.78;;
21527;SDS011;10925;49.102;-0.370;2023-04-24T14:11:31;5.95;;;2.70;;
21527;SDS011;10925;49.102;-0.370;2023-04-24T14:13:57;5.78;;;2.72;;
21527;SDS011;10925;49.102;-0.370;2023-04-24T14:16:24;5.22;;;2.67;;
21527;SDS011;10925;49.102;-0.370;2023-04-24T14:18:51;4.70;;;2.63;;
21527;SDS011;10925;49.102;-0.370;2023-04-24T14:21:18;5.70;;;2.53;;
21527;SDS011;10925;49.102;-0.370;2023-04-24T14:23:45;5.13;;;2.85;;
21527;SDS011;10925;49.102;-0.370;2023-04-24T14:26:10;4.18;;;2.55;;
21527;SDS011;10925;49.102;-0.370;2023-04-24T14:28:37;8.45;;;3.00;;
21527;SDS011;10925;49.102;-0.370;2023-04-24T14:31:04;4.97;;;2.50;;
21527;SDS011;10925;49.102;-0.370;2023-04-24T14:33:31;7.95;;;2.95;;
21527;SDS011;10925;49.102;-0.370;2023-04-24T14:35:57;7.55;;;2.92;;
21527;SDS011;10925;49.102;-0.370;2023-04-24T14:38:24;5.15;;;2.63;;
21527;SDS011;10925;49.102;-0.370;2023-04-24T14:40:51;6.10;;;2.50;;
21527;SDS011;10925;49.102;-0.370;2023-04-24T14:43:33;7.10;;;2.80;;
21527;SDS011;10925;49.102;-0.370;2023-04-24T14:46:00;7.18;;;2.92;;
21527;SDS011;10925;49.102;-0.370;2023-04-24T14:48:25;7.55;;;3.03;;
21527;SDS011;10925;49.102;-0.370;2023-04-24T14:50:52;6.82;;;2.80;;
21527;SDS011;10925;49.102;-0.370;2023-04-24T14:53:19;4.15;;;2.38;;
21527;SDS011;10925;49.102;-0.370;2023-04-24T14:55:45;5.72;;;2.35;;
21527;SDS011;10925;49.102;-0.370;2023-04-24T14:58:12;9.35;;;2.78;;